Date,TemperatureHighF,TemperatureAvgF,TemperatureLowF,DewpointHighF,DewpointAvgF,DewpointLowF,HumidityHigh,HumidityAvg,HumidityLow,PressureMaxIn,PressureMinIn,WindSpeedMaxMPH,WindSpeedAvgMPH,GustSpeedMaxMPH,PrecipitationSumIn
2013-5-1,65.3,51.1,35.6,10.0,0.2,-9.3,31,14,5,30.40,30.08,15,5,16,0.00
2013-5-2,76.8,55.9,32.6,14.3,0.4,-9.9,35,13,2,30.46,30.14,14,2,15,0.00
2013-5-3,83.3,62.9,37.2,18.3,4.3,-9.9,46,14,2,30.14,29.81,21,3,21,0.00
2013-5-4,73.8,60.4,46.8,29.6,22.7,10.6,38,24,13,29.85,29.55,21,4,21,0.00
2013-5-5,78.7,61.6,46.0,41.2,32.0,24.7,58,36,15,29.65,29.47,24,5,24,0.00
2013-5-6,73.7,58.6,50.0,42.3,36.7,26.0,71,48,18,29.77,29.60,28,6,28,0.00
2013-5-7,62.6,53.2,47.7,48.3,41.5,38.0,91,66,42,29.91,29.77,20,5,20,0.10
2013-5-8,73.7,59.4,47.9,51.1,42.9,33.7,92,60,26,29.99,29.88,12,2,12,0.01
2013-5-9,81.5,65.1,51.9,53.1,42.3,31.5,72,48,18,30.00,29.86,28,3,30,0.02
2013-5-10,86.2,69.6,50.1,49.3,38.4,26.1,80,40,12,30.05,29.94,21,2,21,0.00
2013-5-11,89.8,72.6,50.6,44.2,30.2,-3.2,66,28,3,30.05,29.91,14,2,14,0.00
2013-5-12,93.3,76.6,55.0,42.2,34.1,22.3,54,25,8,29.99,29.81,16,3,16,0.00
2013-5-13,93.0,74.0,53.6,43.4,32.3,24.6,56,26,10,29.91,29.75,26,4,27,0.00
2013-5-14,90.3,71.3,51.3,40.0,30.6,14.2,47,25,7,29.83,29.65,29,4,30,0.00
2013-5-15,86.5,69.9,58.3,41.2,27.1,1.1,49,25,4,29.76,29.67,28,8,30,0.00
2013-5-16,67.3,60.3,53.5,45.1,37.0,29.8,54,42,32,29.78,29.69,21,4,23,0.00
2013-5-17,75.3,60.7,47.4,43.1,33.5,19.3,76,41,13,29.90,29.73,20,4,22,0.00
2013-5-18,76.3,58.5,43.1,37.2,31.5,24.9,62,39,16,29.97,29.85,29,4,29,0.00
2013-5-19,72.0,60.4,49.0,38.5,29.1,16.2,64,34,13,30.09,29.97,21,5,21,0.00
2013-5-20,78.0,60.6,39.7,31.7,22.2,3.9,55,27,6,30.13,29.84,11,1,11,0.00
2013-5-21,82.5,65.7,48.9,33.5,21.7,5.7,44,21,9,29.84,29.53,37,8,37,0.00
2013-5-22,63.1,53.0,41.3,26.4,8.2,-9.9,45,19,5,29.76,29.57,22,6,23,0.00
2013-5-23,67.0,52.2,31.0,18.8,12.1,1.5,46,22,9,29.94,29.74,22,3,22,0.00
2013-5-24,81.5,59.8,33.5,24.3,12.3,-9.9,61,23,1,29.95,29.70,20,3,21,0.00
2013-5-25,78.8,64.0,41.8,27.6,19.5,10.8,47,20,8,29.81,29.67,21,3,22,0.00
2013-5-26,78.8,61.5,43.5,30.9,24.2,10.3,54,27,8,29.85,29.75,24,4,24,0.00
2013-5-27,73.7,63.9,53.9,47.0,36.5,20.9,77,39,14,29.85,29.75,25,7,25,0.01
2013-5-28,70.3,59.9,50.5,46.4,38.1,28.6,80,48,22,29.79,29.71,20,6,20,0.06
2013-5-29,77.3,64.6,50.5,41.3,33.5,24.9,65,35,16,29.75,29.66,23,5,23,0.00
2013-5-30,82.8,65.6,43.5,38.2,28.9,15.1,73,31,9,29.88,29.72,19,3,19,0.00
2013-5-31,83.1,66.8,44.7,26.9,17.0,8.0,41,17,6,30.02,29.88,10,2,12,0.00